Sacramento, CA (94236)

10:20 PM PST on December 28, 2014 (GMT -0800)
APRSWXNET Sacramento CA US | Change Station
CLOSE
Current Station
Personal Weather Station
Location: Sacramento, CA
Elevation: 18 ft
Nearby Weather Stations
Active Advisory: Special Statement

Elev 18 ft 38.57 °N, 121.48 °W | Updated 45 minutes ago

Clear
Clear
41 °F
Feels Like 41 °F
N
0
Wind Variable Wind from WSW
Gusts 0.0 mph

Today
High -- | Low -- °F
--% Chance of Precip.
Yesterday
High -- | Low -- °F
Precip. -- in
7:22 AM 4:52 PM
First Quarter, 55% visible
Pressure 30.26 in
Visibility 9.0 miles
Clouds Clear
Windchill 41 °F
Dew Point 36 °F
Humidity 82%
Rainfall -999.00 in
Snow Depth Not available.
UV 0 out of 12
Pollen 3.80 out of 12
Air Quality Not available.
Flu Activity Not available.
METAR KSAC 290553Z AUTO 00000KT 9SM CLR 04/02 A3026 RMK AO2 SLP245 T00390017 10122 20033 53002

More Conditions Fewer Conditions

Pressure 30.26 in
Visibility 9.0 miles
Clouds Clear
Windchill 41 °F
Dew Point 36 °F
Humidity 82%
Rainfall -999.00 in
Snow Depth Not available.
UV 0 out of 12
Pollen 3.80 out of 12
Air Quality Not available.
Flu Activity Not available.
METAR KSAC 290553Z AUTO 00000KT 9SM CLR 04/02 A3026 RMK AO2 SLP245 T00390017 10122 20033 53002

More Conditions Fewer Conditions

10-Day Weather Forecast

Almanac

Astronomy

Dec. 28, 2014 Rise Set
Actual Time
Civil Twilight
Nautical Twilight
Astronomical Twilight
Moon
Length of Visible Light
Length of Day
Tomorrow will be .
, % of the Moon is Illuminated

Today's Extremes

State Highs State Lows

Community

WunderPhotos

Upload Photos

1,781,544 photos uploaded!

WunderBlogs® & News

Nearby

Air Quality

  Air Quality AQ Index Pollutant
Not available.

Snow Depth

Station Depth Elevation

Earthquake Activity

City Distance Mag. Time & Date
Minimum magnitude displayed is 2.5.

Coastal Water Temperatures

Place Temperature

Nearby Weather Stations